createdAt,value
2018-09-26T00:00:17.266Z,2.8
2018-09-26T00:01:07.905Z,2.7
2018-09-26T00:01:57.691Z,2.8
2018-09-26T00:02:47.466Z,2.7
2018-09-26T00:03:37.520Z,2.7
2018-09-26T00:04:27.305Z,2.7
2018-09-26T00:05:17.658Z,2.7
2018-09-26T00:06:07.990Z,2.7
2018-09-26T00:06:58.049Z,2.7
2018-09-26T00:07:48.367Z,2.6
2018-09-26T00:08:37.892Z,2.6
2018-09-26T00:09:28.244Z,2.6
2018-09-26T00:10:18.260Z,2.6
2018-09-26T00:11:07.782Z,2.6
2018-09-26T00:11:58.459Z,2.6
2018-09-26T00:12:48.185Z,2.6
2018-09-26T00:13:38.255Z,2.6
2018-09-26T00:14:28.582Z,2.6
2018-09-26T00:15:18.654Z,2.5
2018-09-26T00:16:08.149Z,2.5
2018-09-26T00:16:58.199Z,2.5
2018-09-26T00:17:48.566Z,2.5
2018-09-26T00:18:38.699Z,2.5
2018-09-26T00:19:28.969Z,2.4
2018-09-26T00:20:18.454Z,2.4
2018-09-26T00:21:09.089Z,2.4
2018-09-26T00:21:58.571Z,2.4
2018-09-26T00:22:48.914Z,2.4
2018-09-26T00:23:38.940Z,2.4
2018-09-26T00:24:29.056Z,2.3
2018-09-26T00:25:19.403Z,2.3
2018-09-26T00:26:09.233Z,2.3
2018-09-26T00:26:59.530Z,2.3
2018-09-26T00:27:49.573Z,2.3
2018-09-26T00:28:39.950Z,2.3
2018-09-26T00:29:29.694Z,2.2
2018-09-26T00:30:19.791Z,2.2
2018-09-26T00:31:09.557Z,2.2
2018-09-26T00:31:59.886Z,2.1
2018-09-26T00:32:49.665Z,2.1
2018-09-26T00:33:40.021Z,2.1
2018-09-26T00:34:30.086Z,2.1
2018-09-26T00:35:19.860Z,2.1
2018-09-26T00:36:10.475Z,2
2018-09-26T00:37:00.251Z,2
2018-09-26T00:55:23.490Z,1.5
2018-09-26T00:56:13.764Z,1.4
2018-09-26T00:57:03.871Z,1.4
2018-09-26T00:57:53.667Z,1.4
2018-09-26T00:58:43.422Z,1.4
2018-09-26T00:59:33.770Z,1.4
2018-09-26T01:00:24.472Z,1.3
2018-09-26T01:01:14.117Z,1.3
2018-09-26T01:02:03.682Z,1.3
2018-09-26T01:02:54.009Z,1.3
2018-09-26T01:03:44.361Z,1.3
2018-09-26T01:04:34.397Z,1.3
2018-09-26T01:05:24.789Z,1.2
2018-09-26T01:06:14.526Z,1.2
2018-09-26T01:07:04.014Z,1.2
2018-09-26T01:07:54.645Z,1.2
2018-09-26T01:08:44.432Z,1.1
2018-09-26T01:09:34.768Z,1.1
2018-09-26T01:10:24.563Z,1.1
2018-09-26T01:11:14.651Z,1.1
2018-09-26T01:12:04.757Z,1.1
2018-09-26T01:12:55.062Z,1.1
2018-09-26T01:13:45.074Z,1.1
2018-09-26T01:14:35.139Z,1.1
2018-09-26T01:15:25.194Z,1.1
2018-09-26T01:16:15.651Z,1.1
2018-09-26T01:17:05.336Z,1
2018-09-26T01:17:54.843Z,1
2018-09-26T01:18:45.195Z,1
2018-09-26T01:19:35.522Z,1
2018-09-26T01:20:25.574Z,0.9
2018-09-26T01:21:14.785Z,0.9
2018-09-26T01:22:05.716Z,0.9
2018-09-26T01:22:55.763Z,0.9
2018-09-26T01:23:45.808Z,0.9
2018-09-26T01:24:35.886Z,0.9
2018-09-26T01:25:25.974Z,0.9
2018-09-26T01:26:16.049Z,0.9
2018-09-26T01:27:06.060Z,0.9
2018-09-26T01:27:56.132Z,0.9
2018-09-26T01:28:46.190Z,0.8
2018-09-26T01:29:36.261Z,0.8
2018-09-26T01:30:26.041Z,0.8
2018-09-26T01:31:16.412Z,0.8
2018-09-26T01:32:06.427Z,0.8
2018-09-26T01:32:55.937Z,0.8
2018-09-26T01:33:46.279Z,0.8
2018-09-26T01:34:36.341Z,0.8
2018-09-26T01:35:26.407Z,0.8
2018-09-26T01:36:16.785Z,0.8
2018-09-26T01:37:06.864Z,0.8
2018-09-26T01:37:56.587Z,0.8
2018-09-26T01:38:46.672Z,0.8
2018-09-26T01:39:36.717Z,0.8
2018-09-26T01:40:26.491Z,0.8
2018-09-26T01:41:16.974Z,0.8
2018-09-26T01:42:07.417Z,0.8
2018-09-26T01:42:57.275Z,0.8
2018-09-26T01:43:47.307Z,0.8
2018-09-26T01:44:37.090Z,0.8
2018-09-26T01:45:27.141Z,0.8
2018-09-26T01:46:16.916Z,0.8
2018-09-26T01:47:07.788Z,0.8
2018-09-26T01:47:57.384Z,0.8
2018-09-26T01:48:47.395Z,0.8
2018-09-26T01:49:37.461Z,0.8
2018-09-26T01:50:27.782Z,0.8
2018-09-26T01:51:17.591Z,0.8
2018-09-26T01:52:07.446Z,0.8
2018-09-26T01:52:57.965Z,0.8
2018-09-26T01:53:47.779Z,0.8
2018-09-26T01:54:37.817Z,0.8
2018-09-26T01:55:28.174Z,0.8
2018-09-26T01:56:17.661Z,0.8
2018-09-26T01:57:08.066Z,0.8
2018-09-26T01:57:58.353Z,0.8
2018-09-26T01:58:48.406Z,0.8
2018-09-26T01:59:38.476Z,0.8
2018-09-26T02:00:28.264Z,0.7
2018-09-26T02:01:18.617Z,0.7
2018-09-26T02:02:08.381Z,0.7
2018-09-26T02:02:58.719Z,0.7
2018-09-26T02:03:48.526Z,0.7
2018-09-26T02:04:38.283Z,0.6
2018-09-26T02:05:28.907Z,0.6
2018-09-26T02:06:18.690Z,0.6
2018-09-26T02:07:08.751Z,0.6
2018-09-26T02:07:59.098Z,0.6
2018-09-26T02:08:49.146Z,0.6
2018-09-26T02:09:39.196Z,0.6
2018-09-26T02:10:28.997Z,0.6
2018-09-26T02:11:18.481Z,0.6
2018-09-26T02:12:09.413Z,0.6
2018-09-26T02:12:59.161Z,0.6
2018-09-26T02:13:49.505Z,0.6
2018-09-26T02:14:39.585Z,0.6
2018-09-26T02:15:29.665Z,0.6
2018-09-26T02:16:19.677Z,0.6
2018-09-26T02:17:09.491Z,0.6
2018-09-26T02:17:59.884Z,0.6
2018-09-26T02:18:49.680Z,0.6
2018-09-26T02:19:39.689Z,0.6
2018-09-26T02:20:29.462Z,0.6
2018-09-26T02:21:19.807Z,0.6
2018-09-26T02:22:10.119Z,0.6
2018-09-26T02:22:59.672Z,0.6
2018-09-26T02:23:50.561Z,0.6
2018-09-26T02:24:40.312Z,0.6
2018-09-26T02:25:30.099Z,0.6
2018-09-26T02:26:20.437Z,0.6
2018-09-26T02:27:10.528Z,0.6
2018-09-26T02:28:00.594Z,0.6
2018-09-26T02:28:50.670Z,0.6
2018-09-26T02:29:40.694Z,0.6
2018-09-26T02:30:30.196Z,0.6
2018-09-26T02:31:20.267Z,0.6
2018-09-26T02:32:10.013Z,0.6
2018-09-26T02:33:00.969Z,0.6
2018-09-26T02:33:50.761Z,0.6
2018-09-26T02:34:40.779Z,0.6
2018-09-26T02:35:31.128Z,0.6
2018-09-26T02:36:20.886Z,0.6
2018-09-26T02:37:11.229Z,0.6
2018-09-26T02:38:01.029Z,0.6
2018-09-26T02:38:51.621Z,0.6
2018-09-26T02:39:41.461Z,0.6
2018-09-26T02:40:31.208Z,0.6
2018-09-26T02:41:21.311Z,0.6
2018-09-26T02:42:11.311Z,0.6
2018-09-26T02:43:00.822Z,0.6
2018-09-26T02:43:51.787Z,0.7
2018-09-26T02:44:42.068Z,0.7
2018-09-26T02:45:31.878Z,0.8
2018-09-26T02:46:21.935Z,0.8
2018-09-26T02:47:11.989Z,0.8
2018-09-26T02:48:02.043Z,0.8
2018-09-26T02:48:52.143Z,0.8
2018-09-26T02:49:41.931Z,0.8
2018-09-26T02:50:32.230Z,0.8
2018-09-26T02:51:22.293Z,0.8
2018-09-26T02:52:12.059Z,0.8
2018-09-26T02:53:02.412Z,0.9
2018-09-26T02:53:52.725Z,0.9
2018-09-26T02:54:42.240Z,0.9
2018-09-26T02:55:32.403Z,0.9
2018-09-26T02:56:22.660Z,0.9
2018-09-26T02:57:12.734Z,0.9
2018-09-26T02:58:02.503Z,0.9
2018-09-26T02:58:51.987Z,1
2018-09-26T02:59:42.951Z,1
2018-09-26T03:00:32.725Z,1
2018-09-26T03:01:22.458Z,1
2018-09-26T03:02:13.085Z,1.1
2018-09-26T03:03:02.872Z,1.1
2018-09-26T03:03:53.811Z,1.1
2018-09-26T03:04:43.263Z,1.1
2018-09-26T03:05:33.335Z,1.1
2018-09-26T03:06:23.121Z,1.1
2018-09-26T03:07:13.185Z,1.1
2018-09-26T03:08:02.975Z,1.1
2018-09-26T03:08:53.309Z,1.1
2018-09-26T03:09:43.627Z,1.1
2018-09-26T03:10:33.479Z,1.1
2018-09-26T03:11:23.768Z,1.1
2018-09-26T03:12:13.269Z,1.1
2018-09-26T03:13:03.620Z,1.1
2018-09-26T03:13:53.949Z,1.1
2018-09-26T03:14:44.006Z,1.1
2018-09-26T03:15:34.119Z,1.1
2018-09-26T03:16:23.854Z,1.1
2018-09-26T03:17:13.344Z,1.1
2018-09-26T03:18:03.958Z,1.2
2018-09-26T03:18:54.317Z,1.2
2018-09-26T03:19:44.364Z,1.2
2018-09-26T03:20:34.435Z,1.2
2018-09-26T03:21:24.209Z,1.2
2018-09-26T03:22:14.576Z,1.2
2018-09-26T03:23:04.613Z,1.2
2018-09-26T03:23:54.404Z,1.2
2018-09-26T03:24:45.019Z,1.2
2018-09-26T03:25:35.378Z,1.2
2018-09-26T03:26:24.865Z,1.2
2018-09-26T03:27:14.941Z,1.2
2018-09-26T03:28:04.994Z,1.2
2018-09-26T03:28:54.771Z,1.2
2018-09-26T03:29:45.098Z,1.2
2018-09-26T03:30:34.930Z,1.3
2018-09-26T03:31:24.960Z,1.3
2018-09-26T03:32:14.759Z,1.3
2018-09-26T03:33:04.802Z,1.2
2018-09-26T03:33:54.870Z,1.3
2018-09-26T03:34:45.188Z,1.3
2018-09-26T03:35:35.788Z,1.3
2018-09-26T03:36:25.865Z,1.3
2018-09-26T03:37:15.685Z,1.3
2018-09-26T03:38:05.752Z,1.3
2018-09-26T03:38:55.493Z,1.3
2018-09-26T03:39:45.580Z,1.3
2018-09-26T03:40:35.922Z,1.3
2018-09-26T03:41:25.950Z,1.3
2018-09-26T03:42:15.777Z,1.3
2018-09-26T03:43:05.524Z,1.3
2018-09-26T03:43:56.191Z,1.3
2018-09-26T03:44:45.936Z,1.2
2018-09-26T03:45:35.996Z,1.2
2018-09-26T03:46:26.361Z,1.2
2018-09-26T03:47:16.419Z,1.2
2018-09-26T03:48:06.484Z,1.2
2018-09-26T03:48:56.513Z,1.2
2018-09-26T03:49:46.316Z,1.2
2018-09-26T03:50:36.373Z,1.1
2018-09-26T03:51:26.972Z,1.1
2018-09-26T03:52:16.774Z,1.1
2018-09-26T03:53:06.561Z,1.1
2018-09-26T03:53:56.591Z,1.1
2018-09-26T03:54:46.655Z,1.1
2018-09-26T03:55:36.996Z,1.1
2018-09-26T03:56:27.107Z,1.1
2018-09-26T03:57:17.140Z,1.1
2018-09-26T03:58:07.196Z,1
2018-09-26T03:58:56.979Z,1.1
2018-09-26T03:59:47.025Z,1
2018-09-26T04:00:36.808Z,1
2018-09-26T04:01:27.421Z,1
2018-09-26T04:02:17.561Z,1
2018-09-26T04:03:07.586Z,1
2018-09-26T04:03:57.643Z,0.9
2018-09-26T04:04:47.598Z,0.9
2018-09-26T04:05:37.474Z,0.9
2018-09-26T04:06:27.800Z,0.9
2018-09-26T04:07:17.311Z,0.9
2018-09-26T04:08:07.355Z,0.9
2018-09-26T04:08:58.010Z,0.9
2018-09-26T04:09:48.073Z,0.8
2018-09-26T04:10:38.130Z,0.8
2018-09-26T04:11:28.197Z,0.8
2018-09-26T04:12:17.961Z,0.8
2018-09-26T04:13:07.854Z,0.8
2018-09-26T04:13:58.341Z,0.8
2018-09-26T04:14:48.436Z,0.7
2018-09-26T04:15:38.903Z,0.7
2018-09-26T04:16:28.279Z,0.7
2018-09-26T04:17:18.348Z,0.7
2018-09-26T04:18:08.670Z,0.6
2018-09-26T04:18:58.450Z,0.6
2018-09-26T04:19:48.793Z,0.6
2018-09-26T04:20:38.868Z,0.6
2018-09-26T04:21:28.350Z,0.6
2018-09-26T04:22:18.982Z,0.6
2018-09-26T04:23:08.755Z,0.6
2018-09-26T04:23:59.151Z,0.6
2018-09-26T04:24:48.884Z,0.5
2018-09-26T04:25:39.219Z,0.6
2018-09-26T04:26:30.446Z,0.5
2018-09-26T04:27:19.753Z,0.5
2018-09-26T04:28:09.164Z,0.5
2018-09-26T04:28:59.499Z,0.5
2018-09-26T04:29:49.542Z,0.4
2018-09-26T04:30:39.460Z,0.4
2018-09-26T04:31:29.317Z,0.4
2018-09-26T04:32:19.706Z,0.4
2018-09-26T04:33:10.205Z,0.4
2018-09-26T04:34:00.343Z,0.4
2018-09-26T04:34:49.907Z,0.4
2018-09-26T04:35:39.941Z,0.4
2018-09-26T04:36:30.029Z,0.4
2018-09-26T04:37:20.091Z,0.4
2018-09-26T04:38:09.569Z,0.4
2018-09-26T04:39:00.004Z,0.4
2018-09-26T04:39:50.247Z,0.4
2018-09-26T04:40:39.763Z,0.4
2018-09-26T04:41:30.634Z,0.4
2018-09-26T04:42:20.431Z,0.4
2018-09-26T04:43:10.703Z,0.4
2018-09-26T04:44:00.011Z,0.4
2018-09-26T04:44:50.641Z,0.4
2018-09-26T04:45:40.685Z,0.4
2018-09-26T04:46:30.803Z,0.4
2018-09-26T04:47:20.820Z,0.4
2018-09-26T04:48:10.863Z,0.4
2018-09-26T04:49:00.686Z,0.4
2018-09-26T04:49:50.970Z,0.5
2018-09-26T04:50:41.235Z,0.5
2018-09-26T04:51:31.108Z,0.5
2018-09-26T04:52:20.606Z,0.5
2018-09-26T04:53:11.471Z,0.5
2018-09-26T04:54:01.358Z,0.6
2018-09-26T04:54:51.077Z,0.6
2018-09-26T04:55:41.410Z,0.6
2018-09-26T04:56:31.215Z,0.6
2018-09-26T04:57:21.543Z,0.6
2018-09-26T04:58:11.877Z,0.6
2018-09-26T04:59:01.420Z,0.7
2018-09-26T04:59:51.445Z,0.7
2018-09-26T05:00:41.783Z,0.7
2018-09-26T05:01:31.830Z,0.8
2018-09-26T05:02:21.912Z,0.8
2018-09-26T05:03:11.946Z,0.8
2018-09-26T05:04:01.736Z,0.8
2018-09-26T05:04:52.070Z,0.8
2018-09-26T05:05:41.904Z,0.8
2018-09-26T05:06:31.648Z,0.9
2018-09-26T05:07:21.988Z,0.9
2018-09-26T05:24:14.160Z,6
2018-09-26T05:25:03.794Z,6.5
2018-09-26T05:25:53.901Z,6.9
2018-09-26T05:26:43.943Z,7.3
2018-09-26T05:27:33.985Z,7.6
2018-09-26T05:28:24.066Z,8
2018-09-26T05:29:14.443Z,8.4
2018-09-26T05:30:04.169Z,8.8
2018-09-26T05:30:54.227Z,9.1
2018-09-26T05:31:44.561Z,9.6
2018-09-26T05:32:34.369Z,9.9
2018-09-26T05:33:24.701Z,10.4
2018-09-26T05:34:14.193Z,10.8
2018-09-26T05:35:04.791Z,11.2
2018-09-26T05:35:54.857Z,11.6
2018-09-26T05:36:44.991Z,11.9
2018-09-26T05:37:35.014Z,12.4
2018-09-26T05:38:25.085Z,12.8
2018-09-26T05:39:14.828Z,13.2
2018-09-26T05:40:04.911Z,13.6
2018-09-26T05:40:54.941Z,14
2018-09-26T05:41:45.718Z,14.4
2018-09-26T05:42:35.356Z,14.8
2018-09-26T05:43:25.423Z,15.2
2018-09-26T05:44:14.925Z,15.6
2018-09-26T05:45:05.551Z,16
2018-09-26T05:45:55.655Z,16.4
2018-09-26T05:46:45.762Z,16.9
2018-09-26T05:47:35.742Z,17.3
2018-09-26T05:48:25.525Z,17.7
2018-09-26T05:49:15.849Z,18.1
2018-09-26T05:50:05.672Z,18.5
2018-09-26T05:50:56.042Z,18.9
2018-09-26T05:51:45.753Z,19.3
2018-09-26T05:52:36.080Z,19.8
2018-09-26T05:53:26.152Z,20.2
2018-09-26T05:54:16.226Z,20.6
2018-09-26T05:55:06.317Z,21
2018-09-26T05:55:56.282Z,21.4
2018-09-26T05:56:46.395Z,21.8
2018-09-26T05:57:36.449Z,22.2
2018-09-26T05:58:26.257Z,22.6
2018-09-26T05:59:16.824Z,23
2018-09-26T06:00:06.678Z,23.5
2018-09-26T06:00:57.362Z,23.9
2018-09-26T06:01:47.182Z,24.3
2018-09-26T06:02:36.862Z,24.8
2018-09-26T06:03:26.317Z,25.2
2018-09-26T06:04:16.932Z,25.6
2018-09-26T06:05:06.781Z,26.1
2018-09-26T06:05:57.057Z,26.5
2018-09-26T06:06:46.631Z,26.9
2018-09-26T06:07:36.914Z,27.4
2018-09-26T06:09:17.314Z,28.3
2018-09-26T06:10:07.114Z,28.8
2018-09-26T06:10:57.426Z,29.3
2018-09-26T06:11:47.497Z,29.7
2018-09-26T06:12:37.591Z,30.1
2018-09-26T06:13:27.392Z,30.6
2018-09-26T06:14:17.780Z,31.1
2018-09-26T06:15:07.831Z,31.6
2018-09-26T06:15:57.978Z,32.1
2018-09-26T06:16:48.149Z,32.6
2018-09-26T06:17:37.988Z,33.1
2018-09-26T06:18:28.006Z,33.6
2018-09-26T06:19:18.040Z,34.1
2018-09-26T06:20:07.834Z,34.6
2018-09-26T06:20:57.586Z,35
2018-09-26T06:21:48.268Z,35.5
2018-09-26T06:22:38.033Z,36
2018-09-26T06:23:28.341Z,36.5
2018-09-26T06:24:18.457Z,37
2018-09-26T06:25:08.496Z,37.5
2018-09-26T06:25:58.610Z,38
2018-09-26T06:26:48.326Z,38.5
2018-09-26T06:27:38.652Z,39
2018-09-26T06:28:28.159Z,39.5
2018-09-26T06:29:18.784Z,39.9
2018-09-26T06:30:08.869Z,40.5
2018-09-26T06:30:58.900Z,40.9
2018-09-26T06:31:48.685Z,41.4
2018-09-26T06:32:39.014Z,41.9
2018-09-26T06:33:29.093Z,42.3
2018-09-26T06:34:19.188Z,42.8
2018-09-26T06:35:09.100Z,43.3
2018-09-26T06:35:59.271Z,43.6
2018-09-26T06:36:49.054Z,44.1
2018-09-26T06:37:39.096Z,44.4
2018-09-26T06:38:29.471Z,44.8
2018-09-26T06:39:19.536Z,45.2
2018-09-26T06:40:09.301Z,45.6
2018-09-26T06:40:59.080Z,46
2018-09-26T06:41:49.478Z,46.4
2018-09-26T06:42:39.486Z,46.9
2018-09-26T06:43:29.894Z,47.3
2018-09-26T06:44:19.894Z,47.7
2018-09-26T06:45:09.943Z,48.1
2018-09-26T06:46:00.011Z,48.4
2018-09-26T06:46:50.078Z,48.7
2018-09-26T06:47:40.525Z,48.9
2018-09-26T06:48:29.638Z,49.3
2018-09-26T06:49:20.237Z,49.6
2018-09-26T06:50:10.047Z,49.9
2018-09-26T06:51:00.078Z,50.3
2018-09-26T06:51:49.879Z,50.8
2018-09-26T06:52:40.506Z,51.2
2018-09-26T06:53:30.583Z,51.6
2018-09-26T06:54:20.356Z,52.1
2018-09-26T06:55:10.668Z,52.5
2018-09-26T06:56:00.749Z,52.9
2018-09-26T06:56:50.856Z,53.4
2018-09-26T06:57:40.633Z,53.9
2018-09-26T06:58:30.636Z,54.6
2018-09-26T06:59:20.997Z,55.7
2018-09-26T07:00:11.186Z,54.3
2018-09-26T07:01:01.083Z,52.1
2018-09-26T07:01:51.168Z,49.3
2018-09-26T07:02:41.251Z,46.9
2018-09-26T07:03:31.288Z,45.5
2018-09-26T07:04:21.592Z,44.6
2018-09-26T07:05:11.184Z,43.9
2018-09-26T07:06:01.190Z,43.7
2018-09-26T07:06:51.549Z,43.6
2018-09-26T07:07:41.572Z,43.8
2018-09-26T07:08:31.370Z,44
2018-09-26T07:09:21.450Z,44.4
2018-09-26T07:10:11.765Z,44.8
2018-09-26T07:11:01.857Z,45.3
2018-09-26T07:11:51.625Z,45.8
2018-09-26T07:12:41.969Z,46.3
2018-09-26T07:13:31.814Z,46.8
2018-09-26T07:14:21.532Z,47.3
2018-09-26T07:15:12.187Z,47.9
2018-09-26T07:16:02.212Z,48.4
2018-09-26T07:16:52.307Z,49
2018-09-26T07:17:42.609Z,49.6
2018-09-26T07:18:32.387Z,50.3
2018-09-26T07:19:22.450Z,50.9
2018-09-26T07:20:12.514Z,51.4
2018-09-26T07:21:02.609Z,52.1
2018-09-26T07:21:52.376Z,52.6
2018-09-26T07:22:42.779Z,53.2
2018-09-26T07:23:32.537Z,53.8
2018-09-26T07:24:22.522Z,55.2
2018-09-26T07:25:12.886Z,54.9
2018-09-26T07:26:02.680Z,52.9
2018-09-26T07:26:53.026Z,51.1
2018-09-26T07:27:43.089Z,49.2
2018-09-26T07:28:33.197Z,48
2018-09-26T07:29:23.184Z,47.4
2018-09-26T07:30:13.239Z,47.1
2018-09-26T07:31:03.306Z,47.1
2018-09-26T07:31:53.101Z,47.3
2018-09-26T07:32:43.214Z,47.7
2018-09-26T07:33:33.485Z,48.3
2018-09-26T07:34:23.546Z,49
2018-09-26T07:35:13.626Z,49.8
2018-09-26T07:36:03.131Z,50.6
2018-09-26T07:36:53.734Z,51.3
2018-09-26T07:37:43.514Z,52
2018-09-26T07:38:33.069Z,52.8
2018-09-26T07:39:23.645Z,53.5
2018-09-26T07:40:14.051Z,54.6
2018-09-26T07:41:03.471Z,55.9
2018-09-26T07:41:54.121Z,55.4
2018-09-26T07:42:43.331Z,54.6
2018-09-26T07:43:33.956Z,53.7
2018-09-26T07:44:24.029Z,52.4
2018-09-26T07:45:13.926Z,51.4
2018-09-26T07:46:03.301Z,51.3
2018-09-26T07:46:54.221Z,51.9
2018-09-26T07:47:44.541Z,52.7
2018-09-26T07:48:34.090Z,53.1
2018-09-26T07:49:24.415Z,53.3
2018-09-26T07:50:14.175Z,53.3
2018-09-26T07:51:04.356Z,53.1
2018-09-26T07:51:54.302Z,52.9
2018-09-26T07:52:44.328Z,52.6
2018-09-26T07:55:14.648Z,52.6
2018-09-26T07:56:04.685Z,53
2018-09-26T07:56:54.653Z,53.3
2018-09-26T07:57:45.309Z,53.5
2018-09-26T07:58:34.850Z,53.5
2018-09-26T07:59:25.180Z,53.4
2018-09-26T08:00:14.700Z,53.4
2018-09-26T08:01:05.273Z,53.6
2018-09-26T08:01:55.332Z,53.8
2018-09-26T08:02:45.156Z,53.9
2018-09-26T08:03:35.428Z,54.2
2018-09-26T08:04:26.043Z,54.4
2018-09-26T08:05:15.543Z,54.7
2018-09-26T08:06:06.285Z,54.8
2018-09-26T08:06:55.682Z,54.9
2018-09-26T08:07:45.555Z,55
2018-09-26T08:08:35.352Z,55.1
2018-09-26T08:09:25.384Z,55.2
2018-09-26T08:10:15.439Z,55.2
2018-09-26T08:11:05.798Z,55.3
2018-09-26T08:11:56.497Z,55.3
2018-09-26T08:12:46.107Z,55.3
2018-09-26T08:13:36.441Z,55.4
2018-09-26T08:14:26.501Z,55.6
2018-09-26T08:15:15.792Z,55.6
2018-09-26T08:16:06.076Z,55.7
2018-09-26T08:16:56.701Z,55.6
2018-09-26T08:17:46.748Z,55.6
2018-09-26T08:18:36.904Z,55.6
2018-09-26T08:19:26.608Z,55.8
2018-09-26T08:20:16.929Z,55.9
2018-09-26T08:21:06.742Z,56
2018-09-26T08:21:56.807Z,56.2
2018-09-26T08:22:47.149Z,56.4
2018-09-26T08:23:37.292Z,56.6
2018-09-26T08:24:26.983Z,56.8
2018-09-26T08:25:16.704Z,57.1
2018-09-26T08:26:07.114Z,57.3
2018-09-26T08:26:57.431Z,57.6
2018-09-26T08:27:47.199Z,57.9
2018-09-26T08:28:36.970Z,58.1
2018-09-26T08:29:27.618Z,58.3
2018-09-26T08:31:07.503Z,58.9
2018-09-26T08:31:57.793Z,59.2
2018-09-26T08:32:47.593Z,59.6
2018-09-26T08:33:37.945Z,59.8
2018-09-26T08:34:27.709Z,60.1
2018-09-26T08:35:18.060Z,60.3
2018-09-26T08:36:08.160Z,60.2
2018-09-26T08:36:58.152Z,59.6
2018-09-26T08:38:38.013Z,57.6
2018-09-26T08:39:28.360Z,56.6
2018-09-26T08:40:18.433Z,55.7
2018-09-26T08:41:08.778Z,54.9
2018-09-26T08:41:57.994Z,54.2
2018-09-26T08:42:48.318Z,53.4
2018-09-26T08:43:38.379Z,52.6
2018-09-26T08:44:28.486Z,51.8
2018-09-26T08:45:18.791Z,50.6
2018-09-26T08:46:08.865Z,48.9
2018-09-26T08:46:58.882Z,47.6
2018-09-26T08:47:48.407Z,46.3
2018-09-26T08:48:39.039Z,45.3
2018-09-26T08:49:29.082Z,44.4
2018-09-26T08:50:19.195Z,43.8
2018-09-26T08:51:09.251Z,43.7
2018-09-26T08:51:59.256Z,44
2018-09-26T08:52:49.379Z,44.8
2018-09-26T08:53:39.556Z,45.6
2018-09-26T08:54:29.466Z,46
2018-09-26T08:55:19.228Z,46
2018-09-26T08:56:09.369Z,45.9
2018-09-26T08:56:59.649Z,45.6
2018-09-26T08:57:49.423Z,45.3
2018-09-26T08:58:39.740Z,44.9
2018-09-26T08:59:29.824Z,44.6
2018-09-26T09:00:19.323Z,44.1
2018-09-26T09:01:09.099Z,43.6
2018-09-26T09:01:59.706Z,43.1
2018-09-26T09:02:49.808Z,42.5
2018-09-26T09:03:40.131Z,42.3
2018-09-26T09:04:30.178Z,42.4
2018-09-26T09:05:20.251Z,43
2018-09-26T09:06:10.485Z,44.1
2018-09-26T09:07:00.092Z,45.4
2018-09-26T09:07:50.430Z,46.5
2018-09-26T09:08:40.215Z,47.7
2018-09-26T09:09:30.586Z,48.9
2018-09-26T09:10:20.610Z,50.3
2018-09-26T09:11:10.415Z,51.6
2018-09-26T09:12:00.465Z,52.6
2018-09-26T09:12:50.808Z,53.4
2018-09-26T09:13:40.842Z,54.1
2018-09-26T09:14:31.639Z,55.8
2018-09-26T09:15:21.006Z,57.1
2018-09-26T09:16:11.075Z,57.1
2018-09-26T09:17:00.622Z,56.2
2018-09-26T09:17:50.800Z,54.3
2018-09-26T09:18:40.742Z,52.8
2018-09-26T09:19:31.314Z,52
2018-09-26T09:20:22.229Z,52.4
2018-09-26T09:21:11.133Z,53.6
2018-09-26T09:22:01.166Z,54.7
2018-09-26T09:38:48.931Z,56.8
2018-09-26T09:39:38.666Z,55.7
2018-09-26T09:40:28.656Z,55.6
2018-09-26T09:41:19.009Z,56
2018-09-26T09:42:08.697Z,56.6
2018-09-26T09:42:59.065Z,57.3
2018-09-26T09:43:49.292Z,57.9
2018-09-26T09:44:39.244Z,58.1
2018-09-26T09:45:29.282Z,58.3
2018-09-26T09:46:19.384Z,58.4
2018-09-26T09:47:59.477Z,58.9
2018-09-26T09:48:49.521Z,59.3
2018-09-26T09:49:39.596Z,59.6
2018-09-26T09:50:29.678Z,59.9
2018-09-26T09:51:19.728Z,60.1
2018-09-26T09:52:09.781Z,60.3
2018-09-26T09:52:59.833Z,60.4
2018-09-26T09:53:49.626Z,60.6
2018-09-26T09:54:39.683Z,60.8
2018-09-26T09:55:30.028Z,60.9
2018-09-26T09:56:20.076Z,61.1
2018-09-26T09:57:09.865Z,61.1
2018-09-26T09:58:00.230Z,61.1
2018-09-26T09:58:50.256Z,61.2
2018-09-26T09:59:40.054Z,61.3
2018-09-26T10:00:29.835Z,61.4
2018-09-26T10:01:20.525Z,61.5
2018-09-26T10:02:10.701Z,61.6
2018-09-26T10:03:00.268Z,61.8
2018-09-26T10:03:50.878Z,61.9
2018-09-26T10:04:40.680Z,61.6
2018-09-26T10:05:30.493Z,60.6
2018-09-26T10:06:20.541Z,59.4
2018-09-26T10:07:10.875Z,58.3
2018-09-26T10:08:00.661Z,57.5
2018-09-26T10:08:50.706Z,57.1
2018-09-26T10:09:40.795Z,56.5
2018-09-26T10:10:30.847Z,56.4
2018-09-26T10:11:21.218Z,57.5
2018-09-26T10:12:11.249Z,59.3
2018-09-26T10:13:01.320Z,60.1
2018-09-26T10:13:51.096Z,60.5
2018-09-26T10:14:41.167Z,60.3
2018-09-26T10:15:31.861Z,59.6
2018-09-26T10:16:21.559Z,59.1
2018-09-26T10:17:11.611Z,59.1
2018-09-26T10:18:01.387Z,59.7
2018-09-26T10:18:51.771Z,60.6
2018-09-26T10:19:41.509Z,61.3
2018-09-26T10:20:31.602Z,61.4
2018-09-26T10:21:21.929Z,60.8
2018-09-26T10:22:12.026Z,60.6
2018-09-26T10:23:01.505Z,60.6
2018-09-26T10:23:52.131Z,60.4
2018-09-26T10:24:42.196Z,60.1
2018-09-26T10:25:32.253Z,60
2018-09-26T10:26:22.898Z,59.4
2018-09-26T10:27:12.351Z,58.5
2018-09-26T10:28:02.416Z,57.5
2018-09-26T10:28:52.504Z,56.6
2018-09-26T10:29:42.598Z,55.7
2018-09-26T10:30:32.374Z,54.6
2018-09-26T10:31:22.677Z,53
2018-09-26T10:32:12.945Z,51.4
2018-09-26T10:33:02.802Z,50.3
2018-09-26T10:33:52.846Z,49.4
2018-09-26T10:34:43.043Z,48.8
2018-09-26T10:35:32.997Z,48.8
2018-09-26T10:36:23.089Z,49.2
2018-09-26T10:37:13.154Z,49.6
2018-09-26T10:38:03.176Z,49.8
2018-09-26T10:38:53.473Z,49.9
2018-09-26T10:39:43.021Z,50.2
2018-09-26T10:40:33.083Z,50.6
2018-09-26T10:41:23.168Z,51.4
2018-09-26T10:42:13.177Z,52.4
2018-09-26T10:43:02.958Z,53.6
2018-09-26T10:43:53.613Z,54.8
2018-09-26T10:44:43.650Z,55.9
2018-09-26T10:45:33.708Z,56.5
2018-09-26T10:46:23.770Z,57
2018-09-26T10:47:13.536Z,57.7
2018-09-26T10:48:03.895Z,58.4
2018-09-26T10:48:53.952Z,59.5
2018-09-26T10:49:43.998Z,58.8
2018-09-26T10:50:34.065Z,57.4
2018-09-26T10:51:24.139Z,55.2
2018-09-26T10:52:14.200Z,53.1
2018-09-26T10:53:03.832Z,51.9
2018-09-26T10:53:54.308Z,51.5
2018-09-26T10:54:44.379Z,51.9
2018-09-26T10:55:34.702Z,52.7
2018-09-26T10:56:24.893Z,53.5
2018-09-26T10:57:14.583Z,54.6
2018-09-26T10:58:04.609Z,55.6
2018-09-26T10:58:54.674Z,56.8
2018-09-26T10:59:44.724Z,57.4
2018-09-26T11:00:35.052Z,58.8
2018-09-26T11:01:24.872Z,59.6
2018-09-26T11:02:15.630Z,59.1
2018-09-26T11:03:04.437Z,58.1
2018-09-26T11:03:54.479Z,56.5
2018-09-26T11:04:45.117Z,54.9
2018-09-26T11:05:35.141Z,53.6
2018-09-26T11:06:25.264Z,52.6
2018-09-26T11:07:14.727Z,52
2018-09-26T11:08:05.468Z,51.6
2018-09-26T11:08:55.121Z,51.1
2018-09-26T11:09:45.501Z,50.4
2018-09-26T11:10:35.568Z,49.6
2018-09-26T11:11:25.599Z,49.1
2018-09-26T11:12:15.652Z,49.1
2018-09-26T11:13:05.745Z,49.5
2018-09-26T11:13:55.232Z,50.1
2018-09-26T11:14:45.558Z,50.4
2018-09-26T11:15:35.666Z,50.5
2018-09-26T11:16:26.322Z,50.4
2018-09-26T11:17:16.024Z,50.3
2018-09-26T11:18:06.133Z,50.2
2018-09-26T11:18:56.162Z,49.9
2018-09-26T11:19:46.210Z,49.6
2018-09-26T11:20:36.418Z,49.1
2018-09-26T11:21:26.270Z,48.6
2018-09-26T11:22:16.418Z,48.1
2018-09-26T11:23:06.478Z,47.5
2018-09-26T11:23:56.521Z,47
2018-09-26T11:24:46.598Z,46.5
2018-09-26T11:25:36.633Z,46
2018-09-26T11:26:27.157Z,45.6
2018-09-26T11:27:16.782Z,45.4
2018-09-26T11:28:06.636Z,45.6
2018-09-26T11:28:56.616Z,46.1
2018-09-26T11:29:46.675Z,46.9
2018-09-26T11:30:36.723Z,47.8
2018-09-26T11:31:27.101Z,48.5
2018-09-26T11:32:17.451Z,49.2
2018-09-26T11:33:06.984Z,49.6
2018-09-26T11:33:57.287Z,49.6
2018-09-26T11:34:47.042Z,49.4
2018-09-26T11:35:37.108Z,49.1
2018-09-26T11:36:27.170Z,48.6
2018-09-26T11:37:17.195Z,48.4
2018-09-26T11:38:07.805Z,48.6
2018-09-26T11:38:57.638Z,49
2018-09-26T11:39:47.702Z,49.6
2018-09-26T11:40:37.735Z,49.9
2018-09-26T11:41:27.539Z,49.9
2018-09-26T11:42:17.616Z,49.6
2018-09-26T11:43:07.942Z,49.2
2018-09-26T11:43:57.727Z,48.6
2018-09-26T11:44:48.544Z,47.9
2018-09-26T11:45:38.110Z,47.4
2018-09-26T11:46:28.420Z,46.9
2018-09-26T11:47:17.962Z,46.7
2018-09-26T11:48:07.767Z,46.4
2018-09-26T11:48:58.347Z,46.2
2018-09-26T11:49:48.436Z,45.8
2018-09-26T11:50:37.919Z,45.4
2018-09-26T11:51:27.979Z,45
2018-09-26T11:52:18.135Z,44.6
2018-09-26T11:53:08.651Z,44.2
2018-09-26T11:53:58.719Z,43.8
2018-09-26T11:54:48.798Z,43.3
2018-09-26T11:55:38.878Z,42.8
2018-09-26T11:56:28.998Z,42.3
2018-09-26T11:57:18.203Z,41.8
2018-09-26T11:58:08.874Z,41.4
2018-09-26T11:58:58.856Z,41.1
2018-09-26T11:59:49.128Z,40.9
2018-09-26T12:00:39.201Z,40.9
2018-09-26T12:01:29.306Z,41.2
2018-09-26T12:02:19.622Z,41.8
2018-09-26T12:03:09.399Z,42.7
2018-09-26T12:03:59.053Z,43.8
2018-09-26T12:04:49.234Z,44.9
2018-09-26T12:05:39.126Z,46.2
2018-09-26T12:06:29.088Z,47.5
2018-09-26T12:07:19.917Z,48.7
2018-09-26T12:08:09.952Z,49.5
2018-09-26T12:09:00.125Z,49.8
2018-09-26T12:09:49.605Z,49.7
2018-09-26T12:10:39.958Z,49.4
2018-09-26T12:11:30.026Z,49
2018-09-26T12:12:20.374Z,48.6
2018-09-26T12:13:10.126Z,48.5